Maersk Nimes — VRFO7 — position and weather

sailwx.info

Track history (hours):
 
Tides and Currents Weather Stations Pressure Air Temp Water Temp Dewpoint Dewpoint Depression Visibility Wind Speed Wind Dir Waves Ship Positions

Maersk Nimes

Last reported at 2014-Oct-02 09:34 UTC. Time now 2014-Oct-02 10:35 UTC.
Position N 56°23' E 011°31'.

Length 210 m; draft 10.1 m.

Type: Cargo ship. MMSI: 477559200.

Date/timePositionNaut miles runAvg speedWind from/ knotsBaromVisibWave heightAir tempDewpointWater temp
2014-Oct-02 09:34N 56°23' E 011°31'9511.6
2014-Oct-02 01:23N 54°51' E 010°50'1112.8
2014-Oct-02 00:33N 54°41' E 010°48'1211.9
2014-Oct-01 23:33N 54°36' E 011°07'1312.5
2014-Oct-01 22:34N 54°32' E 011°27'1312.7
2014-Oct-01 21:34N 54°27' E 011°47'1312.6
2014-Oct-01 20:34N 54°27' E 012°09'1312.6
2014-Oct-01 19:33N 54°38' E 012°18'1212.3
2014-Oct-01 18:33N 54°45' E 012°36'1312.6
2014-Oct-01 17:33N 54°50' E 012°56'1312.5
2014-Oct-01 16:33N 54°54' E 013°17'1212.3
2014-Oct-01 15:33N 54°58' E 013°37'1212.4
2014-Oct-01 14:33N 55°03' E 013°57'1111.4
2014-Oct-01 13:33N 55°09' E 014°13'1212.0
2014-Oct-01 12:33N 55°19' E 014°26'1212.1
2014-Oct-01 11:33N 55°28' E 014°40'1212.1
2014-Oct-01 10:33N 55°34' E 014°58'1212.2
2014-Oct-01 09:33N 55°40' E 015°18'1212.4
2014-Oct-01 08:33N 55°45' E 015°37'11412.4
2014-Sep-30 23:24N 56°50' E 018°25'22511.8
2014-Sep-30 04:20N 59°37' E 023°13'811.0
2014-Sep-30 03:33N 59°40' E 023°29'1111.0
2014-Sep-30 02:33N 59°43' E 023°50'1110.6
2014-Sep-30 01:32N 59°45' E 024°11'1010.5
2014-Sep-30 00:34N 59°48' E 024°30'1010.2
2014-Sep-29 23:33N 59°51' E 024°50'4510.2
2014-Sep-29 19:07N 59°59' E 026°19'610.1
2014-Sep-29 18:34N 60°01' E 026°30'1010.1
2014-Sep-29 17:34N 60°00' E 026°50'10 9.8
2014-Sep-29 16:34N 60°01' E 027°09'1410.5
2014-Sep-29 15:13N 60°08' E 027°33'711.0
2014-Sep-29 14:34N 60°12' E 027°46'1110.6
2014-Sep-29 13:33N 60°09' E 028°07'6310.2
2014-Sep-29 07:23N 59°53' E 030°09'2 1.8
2014-Sep-29 06:33N 59°53' E 030°12'0 0.0
2014-Sep-29 05:33N 59°53' E 030°12'0 0.0
2014-Sep-29 04:33N 59°53' E 030°12'0 0.0
2014-Sep-29 03:30N 59°53' E 030°12'0 0.0
2014-Sep-29 02:24N 59°53' E 030°12'0 0.0
2014-Sep-29 01:33N 59°53' E 030°12'0 0.0
2014-Sep-29 00:33N 59°53' E 030°12'0 0.0
2014-Sep-28 23:33N 59°53' E 030°12'0 0.0
2014-Sep-28 22:33N 59°53' E 030°12'0 0.0
2014-Sep-28 21:30N 59°53' E 030°12'0 0.0
2014-Sep-28 20:30N 59°53' E 030°12'0 0.0
2014-Sep-28 19:33N 59°53' E 030°12'0 0.0
2014-Sep-28 18:33N 59°53' E 030°12'0 0.0
2014-Sep-28 17:33N 59°53' E 030°12'0 0.0
2014-Sep-28 16:33N 59°53' E 030°12'0 0.0
2014-Sep-28 15:33N 59°53' E 030°12'0 0.0
2014-Sep-28 14:30N 59°53' E 030°12'0 0.0
2014-Sep-28 13:33N 59°53' E 030°12'0 0.0
2014-Sep-28 12:33N 59°53' E 030°12'0 0.0
2014-Sep-28 11:33N 59°53' E 030°12'0 0.0
2014-Sep-28 10:33N 59°53' E 030°12'0 0.0
2014-Sep-28 09:33N 59°53' E 030°12'0 0.0
2014-Sep-28 08:33N 59°53' E 030°12'0 0.0
2014-Sep-28 07:33N 59°53' E 030°12'1 0.5
2014-Sep-28 06:32N 59°53' E 030°11'1 1.4
2014-Sep-28 05:32N 59°54' E 030°14'0 0.0
2014-Sep-28 04:29N 59°54' E 030°14'0 0.0
2014-Sep-28 03:29N 59°54' E 030°14'0 0.0
2014-Sep-28 02:32N 59°54' E 030°14'0 0.0
2014-Sep-28 01:32N 59°54' E 030°14'0 0.0
2014-Sep-28 00:32N 59°54' E 030°14'0 0.0
2014-Sep-27 23:32N 59°54' E 030°14'0 0.0
2014-Sep-27 22:32N 59°54' E 030°14'0 0.0
2014-Sep-27 21:32N 59°54' E 030°14'0 0.0
2014-Sep-27 20:32N 59°54' E 030°14'0 0.0
2014-Sep-27 19:32N 59°54' E 030°14'0 0.0
2014-Sep-27 18:32N 59°54' E 030°14'0 0.0
2014-Sep-27 17:29N 59°54' E 030°14'0 0.0
2014-Sep-27 16:32N 59°54' E 030°14'0 0.0
2014-Sep-27 15:32N 59°54' E 030°14'0 0.0
2014-Sep-27 14:33N 59°54' E 030°14'3 3.1
2014-Sep-27 13:33N 59°54' E 030°08'8112.5
2014-Sep-27 07:06N 60°05' E 027°28'1316.5
2014-Sep-27 06:19N 59°58' E 027°05'1216.1
2014-Sep-27 05:33N 59°59' E 026°41'1616.3
2014-Sep-27 04:33N 59°55' E 026°09'1916.5
2014-Sep-27 03:23N 59°50' E 025°32'4716.7
2014-Sep-27 00:34N 59°39' E 024°01'1716.8
2014-Sep-26 23:34N 59°34' E 023°29'1616.4
2014-Sep-26 22:33N 59°30' E 022°58'18112.9
2014-Sep-26 08:33N 57°14' E 019°08'1313.0
2014-Sep-26 07:33N 57°04' E 018°54'1312.7
2014-Sep-26 06:30N 56°53' E 018°39'1712.8
2014-Sep-26 05:10N 56°41' E 018°17'912.7
2014-Sep-26 04:25N 56°36' E 018°03'4812.3
2014-Sep-26 00:32N 56°06' E 016°55'1612.2
2014-Sep-25 23:13N 55°58' E 016°30'911.9
2014-Sep-25 22:29N 55°55' E 016°16'1112.1
2014-Sep-25 21:32N 55°49' E 015°58'2020.3
2014-Sep-25 20:33N 55°39' E 015°28'6 5.3
2014-Sep-25 19:26N 55°36' E 015°18'1112.4
2014-Sep-25 18:33N 55°31' E 015°01'1212.4
2014-Sep-25 17:34N 55°25' E 014°42'1211.9
2014-Sep-25 16:33N 55°16' E 014°30'1211.6
2014-Sep-25 15:33N 55°06' E 014°18'1211.9
2014-Sep-25 14:33N 54°59' E 014°01'1313.0
2014-Sep-25 13:33N 54°55' E 013°40'1312.5
2014-Sep-25 12:33N 54°51' E 013°19'1313.0
2014-Sep-25 11:33N 54°47' E 012°57'1813.3
2014-Sep-25 10:13N 54°40' E 012°29'913.3
2014-Sep-25 09:33N 54°35' E 012°18'1211.7
2014-Sep-25 08:33N 54°25' E 012°07'1413.5
2014-Sep-25 07:33N 54°25' E 011°44'1413.7
2014-Sep-25 06:33N 54°31' E 011°23'1414.1
2014-Sep-25 05:33N 54°36' E 010°60'11914.4
2014-Sep-24 21:20N 56°33' E 011°39'1316.3
2014-Sep-24 20:33N 56°44' E 011°49'1616.2
2014-Sep-24 19:32N 56°60' E 011°41'1616.2
2014-Sep-24 18:33N 57°15' E 011°31'1716.6
2014-Sep-24 17:33N 57°30' E 011°17'1716.8
2014-Sep-24 16:33N 57°42' E 010°56'1413.9
2014-Sep-24 15:32N 57°47' E 010°31'1313.4
2014-Sep-24 14:33N 57°45' E 010°06'1312.7
2014-Sep-24 13:32N 57°43' E 009°42'1212.3
2014-Sep-24 12:32N 57°40' E 009°20'14712.1
2014-Sep-24 00:27N 55°41' E 006°45'1212.6
2014-Sep-23 23:29N 55°28' E 006°44'1212.3
2014-Sep-23 22:33N 55°17' E 006°45'1211.9
2014-Sep-23 21:33N 55°06' E 006°53'1211.7
2014-Sep-23 20:33N 54°55' E 006°60'1111.5
2014-Sep-23 19:33N 54°44' E 007°07'1111.2
2014-Sep-23 18:33N 54°34' E 007°14'1111.5
2014-Sep-23 17:33N 54°23' E 007°21'1211.8
2014-Sep-23 16:33N 54°12' E 007°28'1212.2
2014-Sep-23 15:33N 54°02' E 007°38'10 9.8
2014-Sep-23 14:33N 53°53' E 007°47'1313.0
2014-Sep-23 13:33N 53°49' E 008°07'1413.8
2014-Sep-23 12:33N 53°39' E 008°24'6 5.5
2014-Sep-23 11:32N 53°35' E 008°31'0 0.0
2014-Sep-23 10:32N 53°35' E 008°31'0 0.0
2014-Sep-23 09:32N 53°36' E 008°31'0 0.0
2014-Sep-23 08:32N 53°35' E 008°31'0 0.0
2014-Sep-23 07:32N 53°35' E 008°31'0 0.0
2014-Sep-23 06:32N 53°35' E 008°31'0 0.0
2014-Sep-23 05:32N 53°35' E 008°31'0 0.0
2014-Sep-23 04:32N 53°35' E 008°31'0 0.0
2014-Sep-23 03:32N 53°35' E 008°31'0 0.0
2014-Sep-23 02:32N 53°35' E 008°31'0 0.0
2014-Sep-23 01:32N 53°35' E 008°31'0 0.0
2014-Sep-23 00:32N 53°35' E 008°31'0 0.0
2014-Sep-22 23:32N 53°35' E 008°31'0 0.0
2014-Sep-22 22:32N 53°35' E 008°31'0 0.0
2014-Sep-22 21:32N 53°35' E 008°31'0 0.0
2014-Sep-22 20:29N 53°35' E 008°31'3 3.2
2014-Sep-22 19:33N 53°37' E 008°28'1313.5
2014-Sep-22 18:34N 53°46' E 008°10'1312.7
2014-Sep-22 17:33N 53°53' E 007°52'0 0.0
2014-Sep-22 16:27N 53°53' E 007°52'0 0.0
2014-Sep-22 15:21N 53°53' E 007°52'0 0.0
2014-Sep-22 14:15N 53°53' E 007°52'0 0.0
2014-Sep-22 13:33N 53°53' E 007°52'0 0.0
2014-Sep-22 12:30N 53°53' E 007°52'  
Track history (hours):
 
Tides and Currents Weather Stations Pressure Air Temp Water Temp Dewpoint Dewpoint Depression Visibility Wind Speed Wind Dir Waves Ship Positions

Maersk Nimes

Last reported at 2014-Oct-02 09:34 UTC. Time now 2014-Oct-02 10:35 UTC.
Position N 56°23' E 011°31'.

Length 210 m; draft 10.1 m.

Type: Cargo ship. MMSI: 477559200.

Date/timePositionNaut miles runAvg speedWind from/ knotsBaromVisibWave heightAir tempDewpointWater temp
2014-Oct-02 09:34N 56°23' E 011°31'9511.6
2014-Oct-02 01:23N 54°51' E 010°50'1112.8
2014-Oct-02 00:33N 54°41' E 010°48'1211.9
2014-Oct-01 23:33N 54°36' E 011°07'1312.5
2014-Oct-01 22:34N 54°32' E 011°27'1312.7
2014-Oct-01 21:34N 54°27' E 011°47'1312.6
2014-Oct-01 20:34N 54°27' E 012°09'1312.6
2014-Oct-01 19:33N 54°38' E 012°18'1212.3
2014-Oct-01 18:33N 54°45' E 012°36'1312.6
2014-Oct-01 17:33N 54°50' E 012°56'1312.5
2014-Oct-01 16:33N 54°54' E 013°17'1212.3
2014-Oct-01 15:33N 54°58' E 013°37'1212.4
2014-Oct-01 14:33N 55°03' E 013°57'1111.4
2014-Oct-01 13:33N 55°09' E 014°13'1212.0
2014-Oct-01 12:33N 55°19' E 014°26'1212.1
2014-Oct-01 11:33N 55°28' E 014°40'1212.1
2014-Oct-01 10:33N 55°34' E 014°58'1212.2
2014-Oct-01 09:33N 55°40' E 015°18'1212.4
2014-Oct-01 08:33N 55°45' E 015°37'11412.4
2014-Sep-30 23:24N 56°50' E 018°25'22511.8
2014-Sep-30 04:20N 59°37' E 023°13'811.0
2014-Sep-30 03:33N 59°40' E 023°29'1111.0
2014-Sep-30 02:33N 59°43' E 023°50'1110.6
2014-Sep-30 01:32N 59°45' E 024°11'1010.5
2014-Sep-30 00:34N 59°48' E 024°30'1010.2
2014-Sep-29 23:33N 59°51' E 024°50'4510.2
2014-Sep-29 19:07N 59°59' E 026°19'610.1
2014-Sep-29 18:34N 60°01' E 026°30'1010.1
2014-Sep-29 17:34N 60°00' E 026°50'10 9.8
2014-Sep-29 16:34N 60°01' E 027°09'1410.5
2014-Sep-29 15:13N 60°08' E 027°33'711.0
2014-Sep-29 14:34N 60°12' E 027°46'1110.6
2014-Sep-29 13:33N 60°09' E 028°07'6310.2
2014-Sep-29 07:23N 59°53' E 030°09'2 1.8
2014-Sep-29 06:33N 59°53' E 030°12'0 0.0
2014-Sep-29 05:33N 59°53' E 030°12'0 0.0
2014-Sep-29 04:33N 59°53' E 030°12'0 0.0
2014-Sep-29 03:30N 59°53' E 030°12'0 0.0
2014-Sep-29 02:24N 59°53' E 030°12'0 0.0
2014-Sep-29 01:33N 59°53' E 030°12'0 0.0
2014-Sep-29 00:33N 59°53' E 030°12'0 0.0
2014-Sep-28 23:33N 59°53' E 030°12'0 0.0
2014-Sep-28 22:33N 59°53' E 030°12'0 0.0
2014-Sep-28 21:30N 59°53' E 030°12'0 0.0
2014-Sep-28 20:30N 59°53' E 030°12'0 0.0
2014-Sep-28 19:33N 59°53' E 030°12'0 0.0
2014-Sep-28 18:33N 59°53' E 030°12'0 0.0
2014-Sep-28 17:33N 59°53' E 030°12'0 0.0
2014-Sep-28 16:33N 59°53' E 030°12'0 0.0
2014-Sep-28 15:33N 59°53' E 030°12'0 0.0
2014-Sep-28 14:30N 59°53' E 030°12'0 0.0
2014-Sep-28 13:33N 59°53' E 030°12'0 0.0
2014-Sep-28 12:33N 59°53' E 030°12'0 0.0
2014-Sep-28 11:33N 59°53' E 030°12'0 0.0
2014-Sep-28 10:33N 59°53' E 030°12'0 0.0
2014-Sep-28 09:33N 59°53' E 030°12'0 0.0
2014-Sep-28 08:33N 59°53' E 030°12'0 0.0
2014-Sep-28 07:33N 59°53' E 030°12'1 0.5
2014-Sep-28 06:32N 59°53' E 030°11'1 1.4
2014-Sep-28 05:32N 59°54' E 030°14'0 0.0
2014-Sep-28 04:29N 59°54' E 030°14'0 0.0
2014-Sep-28 03:29N 59°54' E 030°14'0 0.0
2014-Sep-28 02:32N 59°54' E 030°14'0 0.0
2014-Sep-28 01:32N 59°54' E 030°14'0 0.0
2014-Sep-28 00:32N 59°54' E 030°14'0 0.0
2014-Sep-27 23:32N 59°54' E 030°14'0 0.0
2014-Sep-27 22:32N 59°54' E 030°14'0 0.0
2014-Sep-27 21:32N 59°54' E 030°14'0 0.0
2014-Sep-27 20:32N 59°54' E 030°14'0 0.0
2014-Sep-27 19:32N 59°54' E 030°14'0 0.0
2014-Sep-27 18:32N 59°54' E 030°14'0 0.0
2014-Sep-27 17:29N 59°54' E 030°14'0 0.0
2014-Sep-27 16:32N 59°54' E 030°14'0 0.0
2014-Sep-27 15:32N 59°54' E 030°14'0 0.0
2014-Sep-27 14:33N 59°54' E 030°14'3 3.1
2014-Sep-27 13:33N 59°54' E 030°08'8112.5
2014-Sep-27 07:06N 60°05' E 027°28'1316.5
2014-Sep-27 06:19N 59°58' E 027°05'1216.1
2014-Sep-27 05:33N 59°59' E 026°41'1616.3
2014-Sep-27 04:33N 59°55' E 026°09'1916.5
2014-Sep-27 03:23N 59°50' E 025°32'4716.7
2014-Sep-27 00:34N 59°39' E 024°01'1716.8
2014-Sep-26 23:34N 59°34' E 023°29'1616.4
2014-Sep-26 22:33N 59°30' E 022°58'18112.9
2014-Sep-26 08:33N 57°14' E 019°08'1313.0
2014-Sep-26 07:33N 57°04' E 018°54'1312.7
2014-Sep-26 06:30N 56°53' E 018°39'1712.8
2014-Sep-26 05:10N 56°41' E 018°17'912.7
2014-Sep-26 04:25N 56°36' E 018°03'4812.3
2014-Sep-26 00:32N 56°06' E 016°55'1612.2
2014-Sep-25 23:13N 55°58' E 016°30'911.9
2014-Sep-25 22:29N 55°55' E 016°16'1112.1
2014-Sep-25 21:32N 55°49' E 015°58'2020.3
2014-Sep-25 20:33N 55°39' E 015°28'6 5.3
2014-Sep-25 19:26N 55°36' E 015°18'1112.4
2014-Sep-25 18:33N 55°31' E 015°01'1212.4
2014-Sep-25 17:34N 55°25' E 014°42'1211.9
2014-Sep-25 16:33N 55°16' E 014°30'1211.6
2014-Sep-25 15:33N 55°06' E 014°18'1211.9
2014-Sep-25 14:33N 54°59' E 014°01'1313.0
2014-Sep-25 13:33N 54°55' E 013°40'1312.5
2014-Sep-25 12:33N 54°51' E 013°19'1313.0
2014-Sep-25 11:33N 54°47' E 012°57'1813.3
2014-Sep-25 10:13N 54°40' E 012°29'913.3
2014-Sep-25 09:33N 54°35' E 012°18'1211.7
2014-Sep-25 08:33N 54°25' E 012°07'1413.5
2014-Sep-25 07:33N 54°25' E 011°44'1413.7
2014-Sep-25 06:33N 54°31' E 011°23'1414.1
2014-Sep-25 05:33N 54°36' E 010°60'11914.4
2014-Sep-24 21:20N 56°33' E 011°39'1316.3
2014-Sep-24 20:33N 56°44' E 011°49'1616.2
2014-Sep-24 19:32N 56°60' E 011°41'1616.2
2014-Sep-24 18:33N 57°15' E 011°31'1716.6
2014-Sep-24 17:33N 57°30' E 011°17'1716.8
2014-Sep-24 16:33N 57°42' E 010°56'1413.9
2014-Sep-24 15:32N 57°47' E 010°31'1313.4
2014-Sep-24 14:33N 57°45' E 010°06'1312.7
2014-Sep-24 13:32N 57°43' E 009°42'1212.3
2014-Sep-24 12:32N 57°40' E 009°20'14712.1
2014-Sep-24 00:27N 55°41' E 006°45'1212.6
2014-Sep-23 23:29N 55°28' E 006°44'1212.3
2014-Sep-23 22:33N 55°17' E 006°45'1211.9
2014-Sep-23 21:33N 55°06' E 006°53'1211.7
2014-Sep-23 20:33N 54°55' E 006°60'1111.5
2014-Sep-23 19:33N 54°44' E 007°07'1111.2
2014-Sep-23 18:33N 54°34' E 007°14'1111.5
2014-Sep-23 17:33N 54°23' E 007°21'1211.8
2014-Sep-23 16:33N 54°12' E 007°28'1212.2
2014-Sep-23 15:33N 54°02' E 007°38'10 9.8
2014-Sep-23 14:33N 53°53' E 007°47'1313.0
2014-Sep-23 13:33N 53°49' E 008°07'1413.8
2014-Sep-23 12:33N 53°39' E 008°24'6 5.5
2014-Sep-23 11:32N 53°35' E 008°31'0 0.0
2014-Sep-23 10:32N 53°35' E 008°31'0 0.0
2014-Sep-23 09:32N 53°36' E 008°31'0 0.0
2014-Sep-23 08:32N 53°35' E 008°31'0 0.0
2014-Sep-23 07:32N 53°35' E 008°31'0 0.0
2014-Sep-23 06:32N 53°35' E 008°31'0 0.0
2014-Sep-23 05:32N 53°35' E 008°31'0 0.0
2014-Sep-23 04:32N 53°35' E 008°31'0 0.0
2014-Sep-23 03:32N 53°35' E 008°31'0 0.0
2014-Sep-23 02:32N 53°35' E 008°31'0 0.0
2014-Sep-23 01:32N 53°35' E 008°31'0 0.0
2014-Sep-23 00:32N 53°35' E 008°31'0 0.0
2014-Sep-22 23:32N 53°35' E 008°31'0 0.0
2014-Sep-22 22:32N 53°35' E 008°31'0 0.0
2014-Sep-22 21:32N 53°35' E 008°31'0 0.0
2014-Sep-22 20:29N 53°35' E 008°31'3 3.2
2014-Sep-22 19:33N 53°37' E 008°28'1313.5
2014-Sep-22 18:34N 53°46' E 008°10'1312.7
2014-Sep-22 17:33N 53°53' E 007°52'0 0.0
2014-Sep-22 16:27N 53°53' E 007°52'0 0.0
2014-Sep-22 15:21N 53°53' E 007°52'0 0.0
2014-Sep-22 14:15N 53°53' E 007°52'0 0.0
2014-Sep-22 13:33N 53°53' E 007°52'0 0.0
2014-Sep-22 12:30N 53°53' E 007°52'  

Dump ship's entire track history